sensor_id;sensor_type;location;lat;lon;timestamp;P1;durP1;ratioP1;P2;durP2;ratioP2
23812;SDS011;12087;45.190;5.688;2024-01-06T00:05:14;10.07;;;8.63;;
23812;SDS011;12087;45.190;5.688;2024-01-06T00:10:38;10.27;;;7.80;;
23812;SDS011;12087;45.190;5.688;2024-01-06T00:16:00;9.88;;;8.00;;
23812;SDS011;12087;45.190;5.688;2024-01-06T00:21:22;11.43;;;8.50;;
23812;SDS011;12087;45.190;5.688;2024-01-06T00:26:46;9.68;;;7.25;;
23812;SDS011;12087;45.190;5.688;2024-01-06T00:32:09;7.75;;;6.32;;
23812;SDS011;12087;45.190;5.688;2024-01-06T00:37:31;8.38;;;6.55;;
23812;SDS011;12087;45.190;5.688;2024-01-06T00:42:55;7.82;;;6.60;;
23812;SDS011;12087;45.190;5.688;2024-01-06T00:48:17;8.52;;;6.55;;
23812;SDS011;12087;45.190;5.688;2024-01-06T00:53:40;9.85;;;7.28;;
23812;SDS011;12087;45.190;5.688;2024-01-06T00:59:03;9.25;;;7.85;;
23812;SDS011;12087;45.190;5.688;2024-01-06T01:04:27;11.13;;;7.85;;
23812;SDS011;12087;45.190;5.688;2024-01-06T01:16:16;8.95;;;7.30;;
23812;SDS011;12087;45.190;5.688;2024-01-06T01:21:38;15.15;;;7.63;;
23812;SDS011;12087;45.190;5.688;2024-01-06T01:27:00;13.75;;;9.57;;
23812;SDS011;12087;45.190;5.688;2024-01-06T01:32:24;11.18;;;9.38;;
23812;SDS011;12087;45.190;5.688;2024-01-06T01:37:46;12.02;;;9.60;;
23812;SDS011;12087;45.190;5.688;2024-01-06T01:43:15;9.10;;;7.38;;
23812;SDS011;12087;45.190;5.688;2024-01-06T01:48:39;9.60;;;7.38;;
23812;SDS011;12087;45.190;5.688;2024-01-06T01:54:02;11.10;;;6.97;;
23812;SDS011;12087;45.190;5.688;2024-01-06T01:59:26;8.73;;;6.53;;
23812;SDS011;12087;45.190;5.688;2024-01-06T02:04:50;6.53;;;5.78;;
23812;SDS011;12087;45.190;5.688;2024-01-06T02:10:12;7.50;;;6.28;;
23812;SDS011;12087;45.190;5.688;2024-01-06T02:15:34;7.03;;;5.47;;
23812;SDS011;12087;45.190;5.688;2024-01-06T02:21:00;5.90;;;5.22;;
23812;SDS011;12087;45.190;5.688;2024-01-06T02:26:24;6.70;;;4.75;;
23812;SDS011;12087;45.190;5.688;2024-01-06T02:31:46;5.25;;;4.43;;
23812;SDS011;12087;45.190;5.688;2024-01-06T02:37:09;6.75;;;4.45;;
23812;SDS011;12087;45.190;5.688;2024-01-06T02:42:32;7.20;;;3.80;;
23812;SDS011;12087;45.190;5.688;2024-01-06T02:47:54;7.35;;;2.80;;
23812;SDS011;12087;45.190;5.688;2024-01-06T02:53:17;5.68;;;2.22;;
23812;SDS011;12087;45.190;5.688;2024-01-06T02:58:40;1.90;;;1.73;;
23812;SDS011;12087;45.190;5.688;2024-01-06T03:04:02;4.30;;;2.88;;
23812;SDS011;12087;45.190;5.688;2024-01-06T03:09:25;7.40;;;3.30;;
23812;SDS011;12087;45.190;5.688;2024-01-06T03:14:48;5.28;;;3.20;;
23812;SDS011;12087;45.190;5.688;2024-01-06T03:20:11;3.90;;;2.80;;
23812;SDS011;12087;45.190;5.688;2024-01-06T03:25:33;5.13;;;2.40;;
23812;SDS011;12087;45.190;5.688;2024-01-06T03:30:57;6.57;;;2.10;;
23812;SDS011;12087;45.190;5.688;2024-01-06T03:36:19;3.72;;;2.20;;
23812;SDS011;12087;45.190;5.688;2024-01-06T03:41:41;4.65;;;2.40;;
23812;SDS011;12087;45.190;5.688;2024-01-06T03:47:05;3.28;;;2.05;;
23812;SDS011;12087;45.190;5.688;2024-01-06T03:52:27;3.35;;;1.80;;
23812;SDS011;12087;45.190;5.688;2024-01-06T03:57:49;3.55;;;2.22;;
23812;SDS011;12087;45.190;5.688;2024-01-06T04:03:13;5.10;;;1.80;;
23812;SDS011;12087;45.190;5.688;2024-01-06T04:08:35;4.95;;;2.17;;
23812;SDS011;12087;45.190;5.688;2024-01-06T04:13:58;3.15;;;1.80;;
23812;SDS011;12087;45.190;5.688;2024-01-06T04:19:22;2.60;;;1.75;;
23812;SDS011;12087;45.190;5.688;2024-01-06T04:24:44;3.17;;;2.03;;
23812;SDS011;12087;45.190;5.688;2024-01-06T04:30:07;6.95;;;2.10;;
23812;SDS011;12087;45.190;5.688;2024-01-06T04:35:31;4.22;;;1.98;;
23812;SDS011;12087;45.190;5.688;2024-01-06T04:40:53;4.95;;;1.52;;
23812;SDS011;12087;45.190;5.688;2024-01-06T04:46:16;3.25;;;2.35;;
23812;SDS011;12087;45.190;5.688;2024-01-06T04:51:39;3.17;;;1.60;;
23812;SDS011;12087;45.190;5.688;2024-01-06T04:57:01;3.97;;;1.80;;
23812;SDS011;12087;45.190;5.688;2024-01-06T05:02:24;8.90;;;1.95;;
23812;SDS011;12087;45.190;5.688;2024-01-06T05:07:48;5.85;;;2.28;;
23812;SDS011;12087;45.190;5.688;2024-01-06T05:13:10;2.80;;;1.55;;
23812;SDS011;12087;45.190;5.688;2024-01-06T05:18:32;2.22;;;1.88;;
23812;SDS011;12087;45.190;5.688;2024-01-06T05:23:56;3.42;;;2.05;;
23812;SDS011;12087;45.190;5.688;2024-01-06T05:29:18;5.95;;;1.60;;
23812;SDS011;12087;45.190;5.688;2024-01-06T05:34:40;2.85;;;1.55;;
23812;SDS011;12087;45.190;5.688;2024-01-06T05:40:04;2.45;;;1.80;;
23812;SDS011;12087;45.190;5.688;2024-01-06T05:45:28;2.03;;;1.65;;
23812;SDS011;12087;45.190;5.688;2024-01-06T05:50:51;2.92;;;1.80;;
23812;SDS011;12087;45.190;5.688;2024-01-06T05:56:22;6.28;;;2.05;;
23812;SDS011;12087;45.190;5.688;2024-01-06T06:01:45;7.07;;;2.22;;
23812;SDS011;12087;45.190;5.688;2024-01-06T06:07:08;3.35;;;1.85;;
23812;SDS011;12087;45.190;5.688;2024-01-06T06:12:31;5.95;;;1.90;;
23812;SDS011;12087;45.190;5.688;2024-01-06T06:17:53;2.65;;;1.55;;
23812;SDS011;12087;45.190;5.688;2024-01-06T06:23:15;2.95;;;1.65;;
23812;SDS011;12087;45.190;5.688;2024-01-06T06:28:39;2.15;;;1.77;;
23812;SDS011;12087;45.190;5.688;2024-01-06T06:34:01;4.55;;;1.80;;
23812;SDS011;12087;45.190;5.688;2024-01-06T06:39:23;4.53;;;3.03;;
23812;SDS011;12087;45.190;5.688;2024-01-06T06:44:48;6.28;;;2.05;;
23812;SDS011;12087;45.190;5.688;2024-01-06T06:50:10;3.80;;;1.75;;
23812;SDS011;12087;45.190;5.688;2024-01-06T06:55:33;2.58;;;1.60;;
23812;SDS011;12087;45.190;5.688;2024-01-06T07:00:58;3.13;;;1.75;;
23812;SDS011;12087;45.190;5.688;2024-01-06T07:06:21;2.28;;;1.65;;
23812;SDS011;12087;45.190;5.688;2024-01-06T07:11:43;2.95;;;1.90;;
23812;SDS011;12087;45.190;5.688;2024-01-06T07:17:06;3.22;;;2.00;;
23812;SDS011;12087;45.190;5.688;2024-01-06T07:22:29;1.42;;;1.33;;
23812;SDS011;12087;45.190;5.688;2024-01-06T07:27:51;2.40;;;1.85;;
23812;SDS011;12087;45.190;5.688;2024-01-06T07:33:15;2.72;;;1.60;;
23812;SDS011;12087;45.190;5.688;2024-01-06T07:38:37;3.63;;;1.98;;
23812;SDS011;12087;45.190;5.688;2024-01-06T07:43:59;4.07;;;2.50;;
23812;SDS011;12087;45.190;5.688;2024-01-06T07:49:24;2.55;;;1.70;;
23812;SDS011;12087;45.190;5.688;2024-01-06T07:54:46;3.35;;;1.52;;
23812;SDS011;12087;45.190;5.688;2024-01-06T08:00:09;2.58;;;1.40;;
23812;SDS011;12087;45.190;5.688;2024-01-06T08:05:36;2.15;;;1.63;;
23812;SDS011;12087;45.190;5.688;2024-01-06T08:10:58;2.80;;;1.58;;
23812;SDS011;12087;45.190;5.688;2024-01-06T08:16:20;3.45;;;2.30;;
23812;SDS011;12087;45.190;5.688;2024-01-06T08:21:44;2.40;;;2.05;;
23812;SDS011;12087;45.190;5.688;2024-01-06T08:27:07;4.20;;;2.35;;
23812;SDS011;12087;45.190;5.688;2024-01-06T08:32:30;7.72;;;3.22;;
23812;SDS011;12087;45.190;5.688;2024-01-06T08:37:54;3.90;;;2.17;;
23812;SDS011;12087;45.190;5.688;2024-01-06T08:43:16;7.43;;;2.97;;
23812;SDS011;12087;45.190;5.688;2024-01-06T08:48:38;6.57;;;2.40;;
23812;SDS011;12087;45.190;5.688;2024-01-06T08:54:02;2.83;;;2.00;;
23812;SDS011;12087;45.190;5.688;2024-01-06T08:59:25;3.97;;;1.95;;
23812;SDS011;12087;45.190;5.688;2024-01-06T09:04:47;2.65;;;2.00;;
23812;SDS011;12087;45.190;5.688;2024-01-06T09:10:11;4.80;;;2.78;;
23812;SDS011;12087;45.190;5.688;2024-01-06T09:15:33;9.63;;;3.10;;
23812;SDS011;12087;45.190;5.688;2024-01-06T09:20:55;5.97;;;2.40;;
23812;SDS011;12087;45.190;5.688;2024-01-06T09:26:19;6.47;;;2.63;;
23812;SDS011;12087;45.190;5.688;2024-01-06T09:31:41;4.03;;;3.10;;
23812;SDS011;12087;45.190;5.688;2024-01-06T09:37:03;6.55;;;3.15;;
23812;SDS011;12087;45.190;5.688;2024-01-06T09:42:27;9.15;;;3.08;;
23812;SDS011;12087;45.190;5.688;2024-01-06T09:47:50;9.10;;;3.42;;
23812;SDS011;12087;45.190;5.688;2024-01-06T09:53:13;4.78;;;2.63;;
23812;SDS011;12087;45.190;5.688;2024-01-06T09:58:36;6.10;;;2.83;;
23812;SDS011;12087;45.190;5.688;2024-01-06T10:04:01;5.78;;;2.75;;
23812;SDS011;12087;45.190;5.688;2024-01-06T10:09:26;4.47;;;2.78;;
23812;SDS011;12087;45.190;5.688;2024-01-06T10:14:50;6.35;;;2.70;;
23812;SDS011;12087;45.190;5.688;2024-01-06T10:20:12;6.03;;;2.83;;
23812;SDS011;12087;45.190;5.688;2024-01-06T10:25:35;5.28;;;2.60;;
23812;SDS011;12087;45.190;5.688;2024-01-06T10:30:59;9.43;;;3.83;;
23812;SDS011;12087;45.190;5.688;2024-01-06T10:36:22;6.93;;;2.88;;
23812;SDS011;12087;45.190;5.688;2024-01-06T10:41:45;3.55;;;2.90;;
23812;SDS011;12087;45.190;5.688;2024-01-06T10:47:11;4.03;;;2.60;;
23812;SDS011;12087;45.190;5.688;2024-01-06T10:52:37;10.27;;;3.67;;
23812;SDS011;12087;45.190;5.688;2024-01-06T10:57:59;6.28;;;2.45;;
23812;SDS011;12087;45.190;5.688;2024-01-06T11:03:24;6.32;;;3.00;;
23812;SDS011;12087;45.190;5.688;2024-01-06T11:08:50;5.97;;;3.20;;
23812;SDS011;12087;45.190;5.688;2024-01-06T11:14:19;8.82;;;3.30;;
23812;SDS011;12087;45.190;5.688;2024-01-06T11:19:45;5.22;;;2.50;;
23812;SDS011;12087;45.190;5.688;2024-01-06T11:25:08;4.15;;;2.90;;
23812;SDS011;12087;45.190;5.688;2024-01-06T11:30:35;7.22;;;2.70;;
23812;SDS011;12087;45.190;5.688;2024-01-06T11:36:00;4.85;;;3.00;;
23812;SDS011;12087;45.190;5.688;2024-01-06T11:47:06;4.80;;;2.60;;
23812;SDS011;12087;45.190;5.688;2024-01-06T11:52:30;4.88;;;2.10;;
23812;SDS011;12087;45.190;5.688;2024-01-06T11:57:52;3.15;;;2.45;;
23812;SDS011;12087;45.190;5.688;2024-01-06T12:03:15;4.53;;;2.70;;
23812;SDS011;12087;45.190;5.688;2024-01-06T12:08:39;5.10;;;3.22;;
23812;SDS011;12087;45.190;5.688;2024-01-06T12:14:02;5.22;;;3.10;;
23812;SDS011;12087;45.190;5.688;2024-01-06T12:19:24;6.22;;;3.67;;
23812;SDS011;12087;45.190;5.688;2024-01-06T12:24:50;6.88;;;3.42;;
23812;SDS011;12087;45.190;5.688;2024-01-06T12:30:12;3.50;;;2.50;;
23812;SDS011;12087;45.190;5.688;2024-01-06T12:35:38;4.38;;;1.95;;
23812;SDS011;12087;45.190;5.688;2024-01-06T12:41:04;2.78;;;2.10;;
23812;SDS011;12087;45.190;5.688;2024-01-06T12:46:27;5.03;;;2.05;;
23812;SDS011;12087;45.190;5.688;2024-01-06T12:51:49;6.68;;;2.17;;
23812;SDS011;12087;45.190;5.688;2024-01-06T12:57:13;3.45;;;2.33;;
23812;SDS011;12087;45.190;5.688;2024-01-06T13:02:35;5.22;;;2.60;;
23812;SDS011;12087;45.190;5.688;2024-01-06T13:07:58;9.15;;;4.53;;
23812;SDS011;12087;45.190;5.688;2024-01-06T13:13:23;8.10;;;2.70;;
23812;SDS011;12087;45.190;5.688;2024-01-06T13:18:45;8.75;;;2.67;;
23812;SDS011;12087;45.190;5.688;2024-01-06T13:24:08;2.70;;;1.85;;
23812;SDS011;12087;45.190;5.688;2024-01-06T13:29:31;4.40;;;2.63;;
23812;SDS011;12087;45.190;5.688;2024-01-06T13:34:54;4.10;;;1.85;;
23812;SDS011;12087;45.190;5.688;2024-01-06T13:40:22;2.95;;;1.98;;
23812;SDS011;12087;45.190;5.688;2024-01-06T13:45:46;2.92;;;1.92;;
23812;SDS011;12087;45.190;5.688;2024-01-06T13:51:08;2.65;;;1.70;;
23812;SDS011;12087;45.190;5.688;2024-01-06T13:56:31;3.55;;;1.90;;
23812;SDS011;12087;45.190;5.688;2024-01-06T14:01:55;2.65;;;1.73;;
23812;SDS011;12087;45.190;5.688;2024-01-06T14:07:17;3.00;;;1.85;;
23812;SDS011;12087;45.190;5.688;2024-01-06T14:12:39;3.63;;;1.70;;
23812;SDS011;12087;45.190;5.688;2024-01-06T14:18:04;3.35;;;1.55;;
23812;SDS011;12087;45.190;5.688;2024-01-06T14:23:26;3.72;;;1.90;;
23812;SDS011;12087;45.190;5.688;2024-01-06T14:28:49;3.70;;;2.00;;
23812;SDS011;12087;45.190;5.688;2024-01-06T14:34:14;6.00;;;2.30;;
23812;SDS011;12087;45.190;5.688;2024-01-06T14:39:36;3.75;;;1.88;;
23812;SDS011;12087;45.190;5.688;2024-01-06T14:44:58;2.10;;;1.83;;
23812;SDS011;12087;45.190;5.688;2024-01-06T14:50:22;3.58;;;2.03;;
23812;SDS011;12087;45.190;5.688;2024-01-06T14:55:44;3.65;;;2.30;;
23812;SDS011;12087;45.190;5.688;2024-01-06T15:01:06;4.55;;;2.50;;
23812;SDS011;12087;45.190;5.688;2024-01-06T15:06:30;4.10;;;2.53;;
23812;SDS011;12087;45.190;5.688;2024-01-06T15:11:52;4.78;;;2.63;;
23812;SDS011;12087;45.190;5.688;2024-01-06T15:17:14;3.75;;;2.08;;
23812;SDS011;12087;45.190;5.688;2024-01-06T15:22:39;3.28;;;1.85;;
23812;SDS011;12087;45.190;5.688;2024-01-06T15:28:02;2.92;;;1.88;;
23812;SDS011;12087;45.190;5.688;2024-01-06T15:33:24;3.83;;;2.00;;
23812;SDS011;12087;45.190;5.688;2024-01-06T15:38:47;2.45;;;2.00;;
23812;SDS011;12087;45.190;5.688;2024-01-06T15:44:09;3.15;;;2.03;;
23812;SDS011;12087;45.190;5.688;2024-01-06T15:49:32;3.97;;;2.45;;
23812;SDS011;12087;45.190;5.688;2024-01-06T15:54:55;5.25;;;2.80;;
23812;SDS011;12087;45.190;5.688;2024-01-06T16:00:18;6.18;;;2.85;;
23812;SDS011;12087;45.190;5.688;2024-01-06T16:05:41;4.85;;;3.10;;
23812;SDS011;12087;45.190;5.688;2024-01-06T16:11:05;5.22;;;2.22;;
23812;SDS011;12087;45.190;5.688;2024-01-06T16:16:28;3.65;;;2.50;;
23812;SDS011;12087;45.190;5.688;2024-01-06T16:21:50;4.25;;;2.53;;
23812;SDS011;12087;45.190;5.688;2024-01-06T16:27:15;5.53;;;2.42;;
23812;SDS011;12087;45.190;5.688;2024-01-06T16:32:38;3.63;;;2.50;;
23812;SDS011;12087;45.190;5.688;2024-01-06T16:38:00;3.50;;;2.38;;
23812;SDS011;12087;45.190;5.688;2024-01-06T16:43:24;3.70;;;2.50;;
23812;SDS011;12087;45.190;5.688;2024-01-06T16:48:46;4.13;;;2.75;;
23812;SDS011;12087;45.190;5.688;2024-01-06T16:54:09;4.00;;;2.80;;
23812;SDS011;12087;45.190;5.688;2024-01-06T16:59:32;3.80;;;2.50;;
23812;SDS011;12087;45.190;5.688;2024-01-06T17:04:55;5.53;;;2.95;;
23812;SDS011;12087;45.190;5.688;2024-01-06T17:10:17;3.60;;;2.63;;
23812;SDS011;12087;45.190;5.688;2024-01-06T17:15:41;3.45;;;2.50;;
23812;SDS011;12087;45.190;5.688;2024-01-06T17:21:03;5.35;;;2.75;;
23812;SDS011;12087;45.190;5.688;2024-01-06T17:26:26;4.25;;;2.78;;
23812;SDS011;12087;45.190;5.688;2024-01-06T17:31:49;3.72;;;2.47;;
23812;SDS011;12087;45.190;5.688;2024-01-06T17:37:11;3.70;;;2.65;;
23812;SDS011;12087;45.190;5.688;2024-01-06T17:42:34;3.35;;;2.42;;
23812;SDS011;12087;45.190;5.688;2024-01-06T17:47:57;3.97;;;2.72;;
23812;SDS011;12087;45.190;5.688;2024-01-06T17:53:20;3.35;;;2.65;;
23812;SDS011;12087;45.190;5.688;2024-01-06T17:58:42;4.25;;;2.60;;
23812;SDS011;12087;45.190;5.688;2024-01-06T18:04:05;4.00;;;2.75;;
23812;SDS011;12087;45.190;5.688;2024-01-06T18:09:27;6.05;;;3.70;;
23812;SDS011;12087;45.190;5.688;2024-01-06T18:14:50;10.07;;;6.03;;
23812;SDS011;12087;45.190;5.688;2024-01-06T18:20:13;4.80;;;2.92;;
23812;SDS011;12087;45.190;5.688;2024-01-06T18:25:41;3.33;;;2.40;;
23812;SDS011;12087;45.190;5.688;2024-01-06T18:31:03;3.15;;;2.70;;
23812;SDS011;12087;45.190;5.688;2024-01-06T18:36:27;3.67;;;2.42;;
23812;SDS011;12087;45.190;5.688;2024-01-06T18:41:49;3.05;;;2.63;;
23812;SDS011;12087;45.190;5.688;2024-01-06T18:47:13;3.72;;;2.90;;
23812;SDS011;12087;45.190;5.688;2024-01-06T18:52:37;3.83;;;2.95;;
23812;SDS011;12087;45.190;5.688;2024-01-06T18:57:59;2.92;;;2.20;;
23812;SDS011;12087;45.190;5.688;2024-01-06T19:03:22;4.47;;;2.42;;
23812;SDS011;12087;45.190;5.688;2024-01-06T19:08:45;3.38;;;2.30;;
23812;SDS011;12087;45.190;5.688;2024-01-06T19:14:08;2.67;;;2.28;;
23812;SDS011;12087;45.190;5.688;2024-01-06T19:19:30;2.33;;;2.10;;
23812;SDS011;12087;45.190;5.688;2024-01-06T19:24:55;5.15;;;2.70;;
23812;SDS011;12087;45.190;5.688;2024-01-06T19:49:37;2.28;;;2.08;;
23812;SDS011;12087;45.190;5.688;2024-01-06T19:55:14;2.57;;;2.30;;
23812;SDS011;12087;45.190;5.688;2024-01-06T20:00:55;4.32;;;3.03;;
23812;SDS011;12087;45.190;5.688;2024-01-06T20:06:19;4.25;;;2.58;;
23812;SDS011;12087;45.190;5.688;2024-01-06T20:11:41;2.60;;;2.40;;
23812;SDS011;12087;45.190;5.688;2024-01-06T20:17:06;2.95;;;2.30;;
23812;SDS011;12087;45.190;5.688;2024-01-06T20:22:34;4.63;;;2.30;;
23812;SDS011;12087;45.190;5.688;2024-01-06T20:27:56;3.17;;;2.50;;
23812;SDS011;12087;45.190;5.688;2024-01-06T20:33:20;3.10;;;2.70;;
23812;SDS011;12087;45.190;5.688;2024-01-06T20:38:44;3.42;;;2.53;;
23812;SDS011;12087;45.190;5.688;2024-01-06T20:44:08;3.78;;;2.55;;
23812;SDS011;12087;45.190;5.688;2024-01-06T20:49:31;3.08;;;2.42;;
23812;SDS011;12087;45.190;5.688;2024-01-06T20:54:54;3.17;;;2.88;;
23812;SDS011;12087;45.190;5.688;2024-01-06T21:00:17;2.83;;;2.55;;
23812;SDS011;12087;45.190;5.688;2024-01-06T21:05:39;3.55;;;2.90;;
23812;SDS011;12087;45.190;5.688;2024-01-06T21:11:03;4.47;;;3.08;;
23812;SDS011;12087;45.190;5.688;2024-01-06T21:16:26;3.97;;;3.00;;
23812;SDS011;12087;45.190;5.688;2024-01-06T21:21:48;6.43;;;3.50;;
23812;SDS011;12087;45.190;5.688;2024-01-06T21:27:12;5.38;;;3.35;;
23812;SDS011;12087;45.190;5.688;2024-01-06T21:32:34;4.88;;;2.95;;
23812;SDS011;12087;45.190;5.688;2024-01-06T21:37:57;6.13;;;4.25;;
23812;SDS011;12087;45.190;5.688;2024-01-06T21:43:21;3.63;;;2.75;;
23812;SDS011;12087;45.190;5.688;2024-01-06T21:48:43;3.80;;;3.17;;
23812;SDS011;12087;45.190;5.688;2024-01-06T21:54:05;4.10;;;2.85;;
23812;SDS011;12087;45.190;5.688;2024-01-06T21:59:29;4.43;;;2.80;;
23812;SDS011;12087;45.190;5.688;2024-01-06T22:04:51;3.97;;;3.50;;
23812;SDS011;12087;45.190;5.688;2024-01-06T22:10:13;3.70;;;2.97;;
23812;SDS011;12087;45.190;5.688;2024-01-06T22:15:37;3.22;;;2.90;;
23812;SDS011;12087;45.190;5.688;2024-01-06T22:21:00;3.95;;;2.75;;
23812;SDS011;12087;45.190;5.688;2024-01-06T22:26:22;3.88;;;3.03;;
23812;SDS011;12087;45.190;5.688;2024-01-06T22:31:45;4.65;;;2.20;;
23812;SDS011;12087;45.190;5.688;2024-01-06T22:37:08;2.63;;;2.35;;
23812;SDS011;12087;45.190;5.688;2024-01-06T22:42:31;2.53;;;2.30;;
23812;SDS011;12087;45.190;5.688;2024-01-06T22:47:55;2.20;;;2.00;;
23812;SDS011;12087;45.190;5.688;2024-01-06T22:53:17;2.55;;;1.90;;
23812;SDS011;12087;45.190;5.688;2024-01-06T22:58:39;2.42;;;2.22;;
23812;SDS011;12087;45.190;5.688;2024-01-06T23:04:03;4.07;;;2.63;;
23812;SDS011;12087;45.190;5.688;2024-01-06T23:09:26;2.85;;;2.40;;
23812;SDS011;12087;45.190;5.688;2024-01-06T23:14:48;3.50;;;2.13;;
23812;SDS011;12087;45.190;5.688;2024-01-06T23:20:13;3.60;;;2.70;;
23812;SDS011;12087;45.190;5.688;2024-01-06T23:25:35;3.35;;;2.25;;
23812;SDS011;12087;45.190;5.688;2024-01-06T23:30:57;2.88;;;2.50;;
23812;SDS011;12087;45.190;5.688;2024-01-06T23:36:21;2.97;;;2.60;;
23812;SDS011;12087;45.190;5.688;2024-01-06T23:41:44;2.70;;;2.10;;
23812;SDS011;12087;45.190;5.688;2024-01-06T23:47:06;2.38;;;2.17;;
23812;SDS011;12087;45.190;5.688;2024-01-06T23:52:29;3.50;;;2.67;;
23812;SDS011;12087;45.190;5.688;2024-01-06T23:57:52;2.72;;;2.17;;
